Time;durP1;ratioP1;P1;durP2;ratioP2;P2;SDS_P1;SDS_P2;PMS_P1;PMS_P2;Temp;Humidity;BMP_temperature;BMP_pressure;BME280_temperature;BME280_humidity;BME280_pressure;Samples;Min_cycle;Max_cycle;Signal;HPM_P1;HPM_P2
2022/02/21 00:02:27;;;;;;;1.77;1.67;;;11.20;95.90;;;;;;10507075;28;20224;-84
2022/02/21 00:07:29;;;;;;;3.23;2.27;;;11.20;95.90;;;;;;10522968;28;20283;-80
2022/02/21 00:12:32;;;;;;;3.27;2.03;;;11.20;96.10;;;;;;10488417;28;20608;-82
2022/02/21 00:17:35;;;;;;;1.93;1.70;;;11.30;96.10;;;;;;10496777;28;20220;-84
2022/02/21 00:22:38;;;;;;;4.83;2.53;;;11.30;95.60;;;;;;10510204;28;20664;-80
2022/02/21 00:27:40;;;;;;;3.13;2.33;;;11.40;95.50;;;;;;10501633;28;20196;-80
2022/02/21 00:32:44;;;;;;;2.97;1.73;;;11.40;95.80;;;;;;10475487;28;20311;-82
2022/02/21 00:37:46;;;;;;;2.00;1.80;;;11.40;95.40;;;;;;10508173;28;20667;-83
2022/02/21 00:42:48;;;;;;;3.70;2.37;;;11.40;95.80;;;;;;10474944;28;20284;-81
2022/02/21 00:47:52;;;;;;;4.63;2.27;;;11.30;96.40;;;;;;10500059;28;20246;-81
2022/02/21 00:52:54;;;;;;;4.60;2.10;;;11.30;96.40;;;;;;10479638;28;20274;-81
2022/02/21 00:57:56;;;;;;;4.00;2.00;;;11.20;97.60;;;;;;10495588;28;20232;-83
2022/02/21 01:03:00;;;;;;;4.43;1.80;;;11.00;98.30;;;;;;10479164;28;20576;-81
2022/02/21 01:08:02;;;;;;;3.43;1.80;;;10.80;98.70;;;;;;10491485;28;20299;-82
2022/02/21 01:13:07;;;;;;;3.07;2.03;;;10.70;99.00;;;;;;10485309;28;20224;-83
2022/02/21 01:18:13;;;;;;;2.40;2.20;;;10.60;99.30;;;;;;10500324;28;20207;-83
2022/02/21 01:23:15;;;;;;;3.13;2.13;;;10.50;99.30;;;;;;10495495;28;20251;-83
2022/02/21 01:28:20;;;;;;;3.70;2.40;;;10.40;99.50;;;;;;10490795;28;20200;-81
2022/02/21 01:33:24;;;;;;;3.23;2.63;;;10.30;99.70;;;;;;10484822;28;20244;-81
2022/02/21 01:38:26;;;;;;;3.00;2.30;;;10.30;99.90;;;;;;10479182;28;20687;-81
2022/02/21 01:43:28;;;;;;;2.10;1.67;;;10.30;99.40;;;;;;10495251;28;20307;-81
2022/02/21 01:48:32;;;;;;;2.90;1.77;;;10.40;99.30;;;;;;10501052;28;20208;-81
2022/02/21 01:53:34;;;;;;;4.93;2.03;;;10.50;99.40;;;;;;10507492;28;20216;-83
2022/02/21 01:58:36;;;;;;;3.57;2.20;;;10.60;99.10;;;;;;10491667;28;20223;-82
2022/02/21 02:03:39;;;;;;;2.30;1.80;;;10.70;99.00;;;;;;10466739;28;20311;-82
2022/02/21 02:08:45;;;;;;;2.03;1.77;;;10.80;98.90;;;;;;10494288;28;20235;-82
2022/02/21 02:13:51;;;;;;;2.50;1.63;;;10.90;98.50;;;;;;10492970;28;20213;-82
2022/02/21 02:18:54;;;;;;;1.50;1.40;;;10.80;98.00;;;;;;10473798;28;20243;-83
2022/02/21 02:23:57;;;;;;;2.23;1.80;;;10.80;98.00;;;;;;10489047;22;20224;-81
2022/02/21 02:29:00;;;;;;;1.60;1.50;;;10.80;98.00;;;;;;10430548;28;20201;-80
2022/02/21 02:34:02;;;;;;;1.80;1.67;;;10.90;98.10;;;;;;10430854;28;20221;-80
2022/02/21 02:39:05;;;;;;;1.97;1.87;;;10.90;98.20;;;;;;10416065;28;20289;-80
2022/02/21 02:44:08;;;;;;;2.30;2.03;;;10.80;98.90;;;;;;10430684;28;20521;-80
2022/02/21 02:49:10;;;;;;;2.30;2.20;;;10.60;99.70;;;;;;10428086;28;20287;-79
2022/02/21 02:54:14;;;;;;;2.37;2.20;;;10.40;99.90;;;;;;10424060;28;20225;-79
2022/02/21 02:59:16;;;;;;;5.93;2.50;;;10.20;99.90;;;;;;10421854;28;20225;-80
2022/02/21 03:04:18;;;;;;;3.40;3.20;;;9.90;99.90;;;;;;10426137;28;20225;-79
2022/02/21 03:09:22;;;;;;;2.53;2.33;;;9.80;99.90;;;;;;10446399;28;20216;-79
2022/02/21 03:14:25;;;;;;;2.60;2.40;;;9.70;99.90;;;;;;10422733;28;20220;-79
2022/02/21 03:19:27;;;;;;;1.93;1.83;;;9.70;99.90;;;;;;10419168;28;20197;-79
2022/02/21 03:24:30;;;;;;;2.10;1.90;;;9.70;99.90;;;;;;10448698;28;20321;-79
2022/02/21 03:29:32;;;;;;;1.63;1.53;;;9.80;99.90;;;;;;10423328;28;20212;-79
2022/02/21 03:34:35;;;;;;;2.43;1.73;;;9.90;99.90;;;;;;10421627;28;20220;-79
2022/02/21 03:39:38;;;;;;;1.87;1.70;;;10.00;99.90;;;;;;10413122;28;20196;-79
2022/02/21 03:44:41;;;;;;;1.70;1.57;;;10.10;99.90;;;;;;10435483;28;20225;-79
2022/02/21 03:49:43;;;;;;;3.83;3.73;;;10.10;99.90;;;;;;10442709;28;20217;-79
2022/02/21 03:54:47;;;;;;;4.60;4.40;;;9.50;99.90;;;;;;10433612;28;20271;-78
2022/02/21 03:59:49;;;;;;;5.40;5.10;;;8.70;99.90;;;;;;10446498;28;20189;-79
2022/02/21 04:04:51;;;;;;;4.53;4.33;;;8.00;99.90;;;;;;10434064;28;20216;-79
2022/02/21 04:09:54;;;;;;;1.93;1.83;;;7.60;99.90;;;;;;10425277;28;20693;-78
2022/02/21 04:14:58;;;;;;;4.80;4.60;;;7.40;99.90;;;;;;10429939;28;20609;-78
2022/02/21 04:20:00;;;;;;;4.10;3.80;;;7.10;99.90;;;;;;10449387;28;20217;-81
2022/02/21 04:25:04;;;;;;;2.60;2.27;;;7.00;99.90;;;;;;10446165;28;20735;-81
2022/02/21 04:30:07;;;;;;;4.00;3.70;;;6.80;99.90;;;;;;10446070;28;20217;-81
2022/02/21 04:35:11;;;;;;;4.00;3.80;;;6.70;99.90;;;;;;10453557;28;20271;-81
2022/02/21 04:40:18;;;;;;;5.33;3.40;;;6.60;99.90;;;;;;10447349;28;20200;-78
2022/02/21 04:45:20;;;;;;;3.63;3.30;;;6.40;99.90;;;;;;10434793;28;20648;-81
2022/02/21 04:50:23;;;;;;;3.17;3.00;;;6.40;99.90;;;;;;10447533;28;20308;-81
2022/02/21 04:55:26;;;;;;;5.30;3.03;;;6.40;99.90;;;;;;10463341;28;20280;-79
2022/02/21 05:00:28;;;;;;;3.97;2.97;;;6.50;99.90;;;;;;10439019;28;20197;-78
2022/02/21 05:05:30;;;;;;;4.17;2.93;;;6.60;99.90;;;;;;10456393;28;20588;-78
2022/02/21 05:10:34;;;;;;;3.40;3.00;;;6.60;99.90;;;;;;10443225;28;20220;-79
2022/02/21 05:15:36;;;;;;;5.50;2.50;;;6.60;99.90;;;;;;10459573;28;20224;-79
2022/02/21 05:20:38;;;;;;;3.60;2.50;;;6.70;99.90;;;;;;10454434;28;20205;-78
2022/02/21 05:25:41;;;;;;;4.93;2.27;;;6.80;99.90;;;;;;10453589;28;20604;-79
2022/02/21 05:30:43;;;;;;;7.63;3.20;;;6.90;99.90;;;;;;10455479;28;20221;-78
2022/02/21 05:35:46;;;;;;;6.60;2.90;;;7.00;99.90;;;;;;10455602;28;20221;-79
2022/02/21 05:40:49;;;;;;;7.07;3.03;;;7.00;99.90;;;;;;10439009;28;20280;-80
2022/02/21 05:45:51;;;;;;;5.70;2.70;;;7.10;99.90;;;;;;10440077;28;20217;-80
2022/02/21 05:50:53;;;;;;;8.23;3.73;;;7.10;99.90;;;;;;10431272;28;20221;-79
2022/02/21 05:55:57;;;;;;;10.80;3.77;;;7.20;99.90;;;;;;10434155;28;20243;-80
2022/02/21 06:00:59;;;;;;;6.73;3.63;;;7.30;99.90;;;;;;10444848;28;20212;-80
2022/02/21 06:06:01;;;;;;;7.20;3.33;;;7.40;99.90;;;;;;10443479;28;20221;-79
2022/02/21 06:11:05;;;;;;;8.03;3.37;;;7.40;99.90;;;;;;10442203;28;20707;-79
2022/02/21 06:16:07;;;;;;;6.47;3.33;;;7.40;99.90;;;;;;10437392;28;20239;-79
2022/02/21 06:21:09;;;;;;;7.10;3.83;;;7.40;99.90;;;;;;10437988;28;20264;-79
2022/02/21 06:26:13;;;;;;;7.37;3.70;;;7.40;99.90;;;;;;10415154;28;20225;-79
2022/02/21 06:31:15;;;;;;;8.00;4.93;;;7.40;99.90;;;;;;10458399;28;20688;-79
2022/02/21 06:36:17;;;;;;;5.13;3.40;;;7.50;99.90;;;;;;10459849;28;20243;-80
2022/02/21 06:41:20;;;;;;;6.33;3.37;;;7.50;99.90;;;;;;10439309;28;20205;-80
2022/02/21 06:46:22;;;;;;;6.77;2.83;;;7.50;99.90;;;;;;10438517;28;20727;-79
2022/02/21 06:51:24;;;;;;;6.40;3.70;;;7.60;99.90;;;;;;10442012;28;20297;-79
2022/02/21 06:56:28;;;;;;;4.10;3.10;;;7.60;99.90;;;;;;10439331;28;20221;-79
2022/02/21 07:01:30;;;;;;;10.60;4.73;;;7.70;99.90;;;;;;10440243;28;20283;-79
2022/02/21 07:06:35;;;;;;;10.13;3.63;;;7.70;99.90;;;;;;10456549;28;20374;-78
2022/02/21 07:11:38;;;;;;;7.10;3.03;;;7.60;99.90;;;;;;10453074;28;20221;-79
2022/02/21 07:16:40;;;;;;;4.97;2.67;;;7.60;99.90;;;;;;10458933;28;20308;-79
2022/02/21 07:21:43;;;;;;;7.23;3.30;;;7.50;99.90;;;;;;10459875;28;20193;-78
2022/02/21 07:26:46;;;;;;;7.23;3.00;;;7.40;99.90;;;;;;10447559;28;20224;-81
2022/02/21 07:31:48;;;;;;;7.80;3.50;;;7.40;99.90;;;;;;10466249;28;20285;-81
2022/02/21 07:36:50;;;;;;;4.90;2.43;;;7.40;99.90;;;;;;10445289;28;20221;-80
2022/02/21 07:41:54;;;;;;;12.13;3.50;;;7.40;99.90;;;;;;10452428;28;20279;-80
2022/02/21 07:46:58;;;;;;;9.50;3.23;;;7.30;99.90;;;;;;10449455;28;20194;-80
2022/02/21 07:52:00;;;;;;;7.70;3.23;;;7.30;99.90;;;;;;10442558;28;20213;-80
2022/02/21 07:57:06;;;;;;;8.60;3.10;;;7.40;99.90;;;;;;10450273;28;20201;-80
2022/02/21 08:02:08;;;;;;;15.30;4.00;;;7.50;99.90;;;;;;10428640;28;20197;-79
2022/02/21 08:07:10;;;;;;;7.63;2.93;;;7.40;99.90;;;;;;10454377;28;20246;-80
2022/02/21 08:12:14;;;;;;;9.80;3.57;;;7.50;99.90;;;;;;10462672;28;20218;-80
2022/02/21 08:17:16;;;;;;;9.00;3.20;;;7.60;99.90;;;;;;10437218;28;20276;-80
2022/02/21 08:22:18;;;;;;;7.97;3.10;;;7.60;99.90;;;;;;10441944;22;20220;31
2022/02/21 08:27:22;;;;;;;12.00;3.27;;;7.80;99.90;;;;;;10361363;28;20210;-80
2022/02/21 08:32:24;;;;;;;16.60;3.20;;;7.90;99.90;;;;;;10381651;28;20707;-81
2022/02/21 08:37:26;;;;;;;11.40;3.20;;;8.10;99.90;;;;;;10319813;28;20634;-82
2022/02/21 08:42:29;;;;;;;6.53;3.20;;;8.20;99.40;;;;;;10340707;28;20431;-82
2022/02/21 08:47:31;;;;;;;9.80;3.30;;;8.40;99.90;;;;;;10324959;28;20203;-82
2022/02/21 08:52:35;;;;;;;5.97;3.30;;;8.50;99.90;;;;;;10329928;28;20273;-81
2022/02/21 08:57:39;;;;;;;8.80;3.40;;;8.60;99.90;;;;;;10301660;28;20211;-84
2022/02/21 09:02:43;;;;;;;9.40;3.07;;;8.70;99.10;;;;;;10310332;28;20219;-82
2022/02/21 09:07:46;;;;;;;11.00;3.90;;;9.00;98.10;;;;;;10292548;28;20713;-83
2022/02/21 09:12:49;;;;;;;11.30;3.77;;;9.30;98.50;;;;;;10310606;28;20229;-82
2022/02/21 09:17:52;;;;;;;9.40;3.80;;;9.50;98.40;;;;;;10321906;28;20222;-81
2022/02/21 09:22:54;;;;;;;8.77;2.77;;;9.60;96.90;;;;;;10315269;28;20237;-81
2022/02/21 09:27:58;;;;;;;6.40;3.03;;;9.70;96.10;;;;;;10302858;28;20207;-81
2022/02/21 09:33:01;;;;;;;9.97;3.13;;;9.60;95.60;;;;;;10336168;28;20737;-82
2022/02/21 09:38:03;;;;;;;6.20;2.63;;;9.80;97.40;;;;;;10317419;28;20214;-82
2022/02/21 09:43:07;;;;;;;10.60;2.50;;;10.00;94.30;;;;;;10317675;28;20293;-79
2022/02/21 09:48:12;;;;;;;7.47;2.50;;;10.00;95.40;;;;;;10316643;28;20203;-81
2022/02/21 09:53:14;;;;;;;7.47;2.80;;;9.90;94.80;;;;;;10317699;28;20238;-79
2022/02/21 09:58:18;;;;;;;6.47;3.00;;;9.70;95.70;;;;;;10299356;28;20497;-80
2022/02/21 10:03:40;;;;;;;6.20;3.10;;;9.60;94.50;;;;;;10314323;28;20672;-82
2022/02/21 10:08:51;;;;;;;6.60;3.00;;;9.70;94.70;;;;;;10325100;28;20211;-85
2022/02/21 10:13:56;;;;;;;6.10;3.33;;;9.90;93.60;;;;;;10315174;28;20258;-84
2022/02/21 10:19:14;;;;;;;6.93;2.90;;;9.90;92.20;;;;;;10327809;28;20196;-79
2022/02/21 10:24:17;;;;;;;6.80;2.50;;;9.80;92.40;;;;;;10333156;28;20223;-82
2022/02/21 10:29:20;;;;;;;8.20;3.10;;;9.60;92.90;;;;;;10321483;28;20405;-80
2022/02/21 10:34:22;;;;;;;5.17;2.83;;;9.40;93.80;;;;;;10322667;28;20219;-83
2022/02/21 10:39:25;;;;;;;6.70;2.70;;;9.30;94.30;;;;;;10319564;28;20203;-82
2022/02/21 10:44:30;;;;;;;3.90;2.40;;;9.30;95.60;;;;;;10297840;28;20219;-81
2022/02/21 10:49:33;;;;;;;3.53;2.70;;;9.30;93.70;;;;;;10296995;28;20200;-84
2022/02/21 10:54:37;;;;;;;6.20;2.50;;;9.30;93.00;;;;;;10317290;28;20227;-83
2022/02/21 10:59:41;;;;;;;7.83;2.50;;;9.30;91.70;;;;;;10315222;28;20241;-80
2022/02/21 11:04:44;;;;;;;5.07;2.50;;;9.20;91.10;;;;;;10320357;28;20215;-79
2022/02/21 11:09:48;;;;;;;9.33;2.90;;;9.00;90.50;;;;;;10315868;28;20552;-79
2022/02/21 11:14:53;;;;;;;11.60;3.37;;;8.90;92.00;;;;;;10299343;28;20292;-79
2022/02/21 11:19:56;;;;;;;7.50;2.93;;;9.10;90.30;;;;;;10308395;28;20202;-81
2022/02/21 11:25:08;;;;;;;6.57;2.90;;;9.20;90.80;;;;;;10315083;28;20230;-81
2022/02/21 11:30:17;;;;;;;8.80;2.30;;;9.50;90.10;;;;;;10316075;28;20289;-81
2022/02/21 11:35:21;;;;;;;4.80;2.30;;;9.70;90.30;;;;;;10312108;28;20720;-83
2022/02/21 11:40:23;;;;;;;5.33;2.30;;;9.70;91.50;;;;;;10315071;28;20257;-81
2022/02/21 11:45:28;;;;;;;6.90;2.27;;;9.80;92.80;;;;;;10330998;28;20219;-82
2022/02/21 11:50:32;;;;;;;5.63;2.50;;;9.80;95.00;;;;;;10314216;28;20219;-81
2022/02/21 11:55:41;;;;;;;6.30;2.43;;;9.70;95.90;;;;;;10298539;28;20590;-82
2022/02/21 12:00:45;;;;;;;6.00;2.40;;;9.40;95.70;;;;;;10313808;28;20262;-80
2022/02/21 12:05:49;;;;;;;4.93;2.90;;;9.40;95.40;;;;;;10297652;28;20302;-80
2022/02/21 12:11:20;;;;;;;4.33;2.83;;;9.60;94.30;;;;;;10334792;28;20229;-80
2022/02/21 12:16:24;;;;;;;5.57;2.17;;;9.90;94.40;;;;;;10321435;28;20223;-80
2022/02/21 12:21:28;;;;;;;7.03;3.00;;;10.10;93.00;;;;;;10315763;28;20206;-83
2022/02/21 12:26:32;;;;;;;5.80;2.80;;;10.40;90.70;;;;;;10338083;28;20231;-82
2022/02/21 12:31:36;;;;;;;4.90;2.30;;;10.60;85.00;;;;;;10337424;28;20279;-80
2022/02/21 12:36:40;;;;;;;3.00;2.10;;;10.70;85.90;;;;;;10321349;28;20226;-81
2022/02/21 12:41:43;;;;;;;2.30;1.70;;;10.60;82.90;;;;;;10321125;28;20202;-81
2022/02/21 12:46:50;;;;;;;3.60;1.83;;;10.60;87.60;;;;;;10320062;28;20224;-81
2022/02/21 12:51:53;;;;;;;2.83;2.00;;;10.50;85.90;;;;;;10327111;28;20226;-81
2022/02/21 12:56:58;;;;;;;4.50;2.03;;;10.50;83.70;;;;;;10325137;28;20642;-81
2022/02/21 13:02:07;;;;;;;4.97;2.30;;;10.40;87.10;;;;;;10306967;28;20246;-80
2022/02/21 13:07:11;;;;;;;3.57;1.80;;;10.30;83.70;;;;;;10322006;28;20262;-80
2022/02/21 13:12:17;;;;;;;4.13;2.10;;;10.20;86.70;;;;;;10338692;28;20230;-81
2022/02/21 13:17:21;;;;;;;2.87;1.90;;;10.20;87.70;;;;;;10339964;28;20679;-81
2022/02/21 13:22:27;;;;;;;9.13;2.07;;;10.30;88.10;;;;;;10338367;28;20262;-81
2022/02/21 13:27:32;;;;;;;3.33;1.90;;;10.50;88.20;;;;;;10321903;28;20434;-81
2022/02/21 13:32:40;;;;;;;3.27;1.87;;;10.60;87.40;;;;;;10305341;28;20691;-81
2022/02/21 13:37:44;;;;;;;3.77;1.97;;;10.50;85.70;;;;;;10306897;28;20199;-82
2022/02/21 13:42:48;;;;;;;2.77;1.83;;;10.50;88.50;;;;;;10309155;28;20640;-83
2022/02/21 13:48:07;;;;;;;4.73;2.27;;;10.40;85.60;;;;;;10308383;28;20762;-84
2022/02/21 13:53:11;;;;;;;3.43;2.10;;;10.40;84.60;;;;;;10324102;28;20234;-83
2022/02/21 13:58:14;;;;;;;5.23;1.97;;;10.40;85.60;;;;;;10324780;28;20227;-83
2022/02/21 14:03:19;;;;;;;6.00;2.00;;;10.30;85.20;;;;;;10350339;28;20252;-83
2022/02/21 14:08:38;;;;;;;1.80;1.50;;;10.30;85.00;;;;;;10336529;28;20210;-83
2022/02/21 14:13:41;;;;;;;2.77;2.20;;;10.20;86.90;;;;;;10350531;28;20246;-83
2022/02/21 14:18:44;;;;;;;4.90;1.60;;;9.90;88.10;;;;;;10315532;28;20290;-83
2022/02/21 14:23:47;;;;;;;2.80;1.70;;;9.90;90.90;;;;;;10414730;23;20256;-79
2022/02/21 14:28:50;;;;;;;5.17;3.37;;;10.00;90.50;;;;;;10454997;28;20272;-79
2022/02/21 14:33:53;;;;;;;2.63;1.90;;;10.00;90.50;;;;;;10448895;28;20271;-79
2022/02/21 14:38:55;;;;;;;3.10;2.10;;;10.00;91.10;;;;;;10436061;28;20576;-79
2022/02/21 14:43:57;;;;;;;4.20;2.27;;;9.90;91.10;;;;;;10435195;28;20243;-78
2022/02/21 14:49:01;;;;;;;2.13;1.60;;;9.90;90.70;;;;;;10435152;28;20276;-78
2022/02/21 14:54:03;;;;;;;4.33;2.50;;;9.90;92.20;;;;;;10451762;28;20685;-79
2022/02/21 14:59:06;;;;;;;6.83;2.20;;;9.90;91.30;;;;;;10453140;28;20282;-79
2022/02/21 15:04:11;;;;;;;5.67;2.13;;;9.90;92.00;;;;;;10452458;28;20240;-79
2022/02/21 15:09:13;;;;;;;6.23;2.37;;;9.90;91.40;;;;;;10434416;28;20710;-79
2022/02/21 15:14:15;;;;;;;2.60;2.07;;;10.00;90.60;;;;;;10437107;28;20803;-79
2022/02/21 15:19:18;;;;;;;3.93;2.20;;;9.90;92.90;;;;;;10451869;28;20201;-79
2022/02/21 15:24:20;;;;;;;6.10;1.93;;;9.90;92.20;;;;;;10452039;28;20223;-79
2022/02/21 15:29:23;;;;;;;2.53;1.47;;;9.80;92.10;;;;;;10451671;28;20190;-79
2022/02/21 15:34:26;;;;;;;2.77;1.87;;;9.70;92.30;;;;;;10434467;28;20245;-79
2022/02/21 15:39:30;;;;;;;2.27;1.87;;;9.60;92.20;;;;;;10434389;28;20216;-79
2022/02/21 15:44:32;;;;;;;1.87;1.63;;;9.50;92.40;;;;;;10457773;28;20228;-78
2022/02/21 15:49:36;;;;;;;3.60;2.00;;;9.30;93.70;;;;;;10441082;28;20198;-78
2022/02/21 15:54:38;;;;;;;2.03;1.80;;;9.30;94.10;;;;;;10441262;28;20311;-78
2022/02/21 15:59:40;;;;;;;3.83;1.50;;;9.20;96.00;;;;;;10459955;28;20267;-78
2022/02/21 16:04:43;;;;;;;3.63;2.30;;;8.90;97.10;;;;;;10440540;28;20217;-78
2022/02/21 16:09:48;;;;;;;5.30;1.60;;;8.70;97.70;;;;;;10458552;28;20304;-78
2022/02/21 16:14:50;;;;;;;3.13;1.40;;;8.50;98.70;;;;;;10458806;28;20603;-78
2022/02/21 16:19:54;;;;;;;3.27;1.70;;;8.50;98.70;;;;;;10423528;28;20626;-78
2022/02/21 16:24:56;;;;;;;3.17;2.03;;;8.50;99.00;;;;;;10440878;28;20221;-82
2022/02/21 16:29:59;;;;;;;2.40;1.47;;;8.30;98.90;;;;;;10463085;28;20207;-78
2022/02/21 16:35:02;;;;;;;2.33;1.70;;;8.20;99.20;;;;;;10459629;28;20217;-78
2022/02/21 16:40:05;;;;;;;2.23;1.47;;;8.20;99.90;;;;;;10457415;28;20211;-78
2022/02/21 16:45:09;;;;;;;1.70;1.60;;;8.20;99.90;;;;;;10443558;28;20704;-80
2022/02/21 16:50:14;;;;;;;4.80;2.17;;;8.10;99.90;;;;;;10465096;28;20197;-80
2022/02/21 16:55:16;;;;;;;2.17;1.60;;;8.10;99.90;;;;;;10430738;28;20228;-80
2022/02/21 17:00:21;;;;;;;2.43;1.73;;;8.20;99.90;;;;;;10447043;28;20201;-80
2022/02/21 17:05:27;;;;;;;1.80;1.70;;;8.10;99.90;;;;;;10430922;28;20217;-79
2022/02/21 17:10:29;;;;;;;3.10;1.93;;;7.90;99.90;;;;;;10429959;28;20204;-79
2022/02/21 17:15:31;;;;;;;2.77;1.60;;;7.70;99.90;;;;;;10463646;28;20237;-80
2022/02/21 17:20:35;;;;;;;1.97;1.80;;;7.50;99.90;;;;;;10443348;28;20263;-79
2022/02/21 17:25:37;;;;;;;4.13;1.97;;;7.30;99.90;;;;;;10459816;28;20300;-78
2022/02/21 17:30:42;;;;;;;5.30;2.83;;;7.30;99.90;;;;;;10442384;28;20196;-80
2022/02/21 17:35:46;;;;;;;1.80;1.70;;;7.30;99.90;;;;;;10427871;28;20240;-78
2022/02/21 17:40:48;;;;;;;2.40;2.30;;;7.20;99.90;;;;;;10460546;28;20193;-78
2022/02/21 17:45:50;;;;;;;2.30;2.10;;;7.30;99.90;;;;;;10460289;28;20270;-79
2022/02/21 17:50:54;;;;;;;3.67;1.90;;;7.30;99.90;;;;;;10443566;28;20617;-79
2022/02/21 17:55:56;;;;;;;2.33;2.13;;;7.20;99.90;;;;;;10443366;28;20590;-78
2022/02/21 18:00:58;;;;;;;2.63;2.23;;;7.20;99.90;;;;;;10445275;28;20201;-79
2022/02/21 18:06:06;;;;;;;3.20;2.27;;;7.30;99.90;;;;;;10461377;28;20221;-80
2022/02/21 18:11:09;;;;;;;2.57;2.37;;;7.30;99.90;;;;;;10452285;28;20201;-81
2022/02/21 18:16:13;;;;;;;2.60;2.40;;;7.40;99.90;;;;;;10440903;28;20320;-81
2022/02/21 18:21:19;;;;;;;3.10;2.20;;;7.40;99.90;;;;;;10467337;28;20247;-80
2022/02/21 18:26:21;;;;;;;2.37;1.50;;;7.50;99.90;;;;;;10428120;28;20588;-83
2022/02/21 18:31:25;;;;;;;5.40;2.30;;;7.60;99.90;;;;;;10457993;28;20197;-83
2022/02/21 18:36:29;;;;;;;3.53;2.40;;;7.70;99.90;;;;;;10425436;28;20307;-82
2022/02/21 18:41:31;;;;;;;4.07;2.53;;;7.70;99.90;;;;;;10443215;28;20219;-83
2022/02/21 18:46:34;;;;;;;7.73;3.10;;;7.80;99.90;;;;;;10424308;28;20696;-81
2022/02/21 18:51:37;;;;;;;6.60;2.70;;;7.80;99.90;;;;;;10450959;28;20247;-81
2022/02/21 18:56:39;;;;;;;3.90;2.50;;;7.80;99.90;;;;;;10466203;28;20255;-81
2022/02/21 19:01:42;;;;;;;6.80;2.90;;;7.80;99.90;;;;;;10419979;28;20687;-80
2022/02/21 19:06:46;;;;;;;3.83;2.40;;;7.70;99.90;;;;;;10437721;28;20595;-80
2022/02/21 19:11:48;;;;;;;8.90;2.90;;;7.70;99.90;;;;;;10435488;28;20732;-80
2022/02/21 19:16:51;;;;;;;6.83;2.90;;;7.70;99.90;;;;;;10433863;28;20709;-79
2022/02/21 19:21:54;;;;;;;4.53;2.30;;;7.80;99.90;;;;;;10436610;28;20669;-81
2022/02/21 19:26:56;;;;;;;3.37;2.60;;;7.80;99.90;;;;;;10420532;28;20244;-80
2022/02/21 19:31:59;;;;;;;7.17;2.40;;;7.80;99.90;;;;;;10420499;28;20208;-81
2022/02/21 19:37:03;;;;;;;6.40;2.53;;;7.90;99.90;;;;;;10442373;28;20229;-79
2022/02/21 19:42:05;;;;;;;4.73;2.23;;;7.90;99.90;;;;;;10435462;28;20212;-81
2022/02/21 19:47:07;;;;;;;3.23;2.43;;;7.90;99.90;;;;;;10435287;28;20696;-80
2022/02/21 19:52:11;;;;;;;4.37;2.40;;;8.00;99.90;;;;;;10416255;28;20282;-78
2022/02/21 19:57:17;;;;;;;4.40;2.80;;;7.90;99.90;;;;;;10435411;28;20216;-81
2022/02/21 20:02:19;;;;;;;3.90;2.47;;;8.00;99.90;;;;;;10418930;28;20197;-80
2022/02/21 20:07:23;;;;;;;6.00;2.20;;;8.00;99.90;;;;;;10419892;28;20229;-81
2022/02/21 20:12:25;;;;;;;2.77;2.20;;;8.10;99.90;;;;;;10419420;28;20256;-79
2022/02/21 20:17:28;;;;;;;3.80;2.50;;;8.10;99.90;;;;;;10438822;28;20275;-80
2022/02/21 20:22:32;;;;;;;4.67;2.87;;;8.10;99.90;;;;;;10439550;28;20236;-79
2022/02/21 20:27:34;;;;;;;5.90;2.87;;;8.10;99.90;;;;;;10474374;22;20232;-83
2022/02/21 20:32:36;;;;;;;5.23;2.60;;;8.20;99.90;;;;;;10435741;28;20221;-84
2022/02/21 20:37:40;;;;;;;4.10;1.70;;;8.20;99.90;;;;;;10453543;28;20225;-84
2022/02/21 20:42:44;;;;;;;3.47;2.43;;;8.30;99.90;;;;;;10468284;28;20220;-84
2022/02/21 20:47:46;;;;;;;2.67;1.87;;;8.30;99.90;;;;;;10439341;28;20253;-84
2022/02/21 20:52:50;;;;;;;5.07;2.60;;;8.40;99.90;;;;;;10460671;28;20649;-84
2022/02/21 20:57:52;;;;;;;3.77;2.60;;;8.50;99.90;;;;;;10458117;28;20217;-82
2022/02/21 21:02:54;;;;;;;7.13;2.47;;;8.60;99.90;;;;;;10453094;28;20193;-83
2022/02/21 21:07:58;;;;;;;5.57;2.30;;;8.60;99.90;;;;;;10422791;28;20229;-82
2022/02/21 21:13:00;;;;;;;2.40;2.20;;;8.60;99.90;;;;;;10448082;28;20576;-84
2022/02/21 21:18:02;;;;;;;6.00;2.77;;;8.60;99.90;;;;;;10426507;28;20239;-80
2022/02/21 21:23:07;;;;;;;4.30;2.40;;;8.60;99.90;;;;;;10442090;28;20205;-82
2022/02/21 21:28:10;;;;;;;4.67;2.50;;;8.70;99.90;;;;;;10441991;28;20685;-82
2022/02/21 21:33:14;;;;;;;2.90;2.60;;;8.70;99.90;;;;;;10454970;28;20695;-81
2022/02/21 21:38:18;;;;;;;6.13;2.53;;;8.60;99.90;;;;;;10459490;28;20205;-80
2022/02/21 21:43:20;;;;;;;3.57;2.10;;;8.70;99.90;;;;;;10425463;28;20232;-82
2022/02/21 21:48:23;;;;;;;3.00;2.43;;;8.60;99.90;;;;;;10429376;28;20265;-82
2022/02/21 21:53:26;;;;;;;5.43;2.57;;;8.60;99.90;;;;;;10452335;28;20242;-84
2022/02/21 21:58:28;;;;;;;6.20;2.37;;;8.60;99.90;;;;;;10453721;28;20204;-84
2022/02/21 22:03:31;;;;;;;5.20;2.80;;;8.60;99.90;;;;;;10446958;28;20644;-81
2022/02/21 22:08:34;;;;;;;4.87;2.33;;;8.70;99.90;;;;;;10440008;28;20272;-81
2022/02/21 22:13:36;;;;;;;6.03;3.17;;;8.50;99.90;;;;;;10462671;28;20303;-81
2022/02/21 22:18:38;;;;;;;5.53;2.73;;;8.50;99.90;;;;;;10449600;28;20613;-80
2022/02/21 22:23:45;;;;;;;4.07;2.60;;;8.40;99.90;;;;;;10421624;28;20649;-80
2022/02/21 22:28:47;;;;;;;4.27;2.63;;;8.40;99.90;;;;;;10453109;28;20236;-83
2022/02/21 22:33:52;;;;;;;6.90;2.43;;;8.30;99.90;;;;;;10426452;28;20279;-81
2022/02/21 22:38:56;;;;;;;8.70;2.93;;;8.40;99.90;;;;;;10428206;28;20208;-86
2022/02/21 22:43:58;;;;;;;4.37;2.00;;;8.40;99.90;;;;;;10443835;28;20254;-83
2022/02/21 22:49:00;;;;;;;3.07;1.87;;;8.40;99.90;;;;;;10439730;28;20206;-82
2022/02/21 22:54:04;;;;;;;7.37;2.20;;;8.40;99.90;;;;;;10440219;28;20225;-83
2022/02/21 22:59:06;;;;;;;6.50;2.57;;;8.50;99.90;;;;;;10429083;28;20205;-84
2022/02/21 23:09:29;;;;;;;6.33;2.63;;;8.60;99.90;;;;;;10414381;28;20685;-80
2022/02/21 23:14:31;;;;;;;6.20;2.70;;;8.60;99.90;;;;;;10463310;28;20229;-80
2022/02/21 23:19:33;;;;;;;4.87;2.40;;;8.60;99.90;;;;;;10454903;28;20201;-80
2022/02/21 23:24:37;;;;;;;3.30;2.23;;;8.60;99.90;;;;;;10426730;28;20315;-80
2022/02/21 23:29:40;;;;;;;3.70;2.37;;;8.60;99.90;;;;;;10421235;28;20209;-80
2022/02/21 23:34:42;;;;;;;5.40;2.50;;;8.60;99.90;;;;;;10443207;28;20743;-81
2022/02/21 23:39:45;;;;;;;6.80;2.53;;;8.60;99.90;;;;;;10430707;28;20205;-80
2022/02/21 23:44:48;;;;;;;6.13;2.40;;;8.70;99.90;;;;;;10426938;28;20244;-80
2022/02/21 23:49:50;;;;;;;3.90;2.30;;;8.70;99.90;;;;;;10441673;28;20216;-82
2022/02/21 23:54:53;;;;;;;5.07;2.17;;;8.80;99.60;;;;;;10437007;28;20315;-83
2022/02/21 23:59:55;;;;;;;4.00;1.97;;;8.70;99.90;;;;;;10424995;28;20232;-80
